Vers la page d'accueil de NAV CANADA Ouverture d'une nouvelle session Chercher sur le site AWWS Clause de non-reponsabilité To the equivalent English page Trucs et astuces FAQ Quoi de neuf sur le site Vers la section Prévisions et observations / NOTAM Vers le site web pour <<Déposer un plan de vol>> Publications et liens importants Mise à jour du profil d'usager Numéros de téléphone des FIC Mes données météo personnelles Données météo de route Données météo régionales Données météo locales Vers la section Prévisions et observations / NOTAM
Requête générée le 2020/07/09 à 10:22:11 UTC. L'information météorologique disponible à ce moment est affichée.

METAR/TAF

Si vous notez des différences entre le METAR/TAF codé et le METAR/TAF en langage clair, veuillez utiliser la version codée. Les bulletins LWIS ne sont pas décodés en langage clair.

QUEBEC/JEAN LESAGE INTL/QC    (voir Cam météo)

METAR CYQB 091000Z 21006KT 20SM SCT013 BKN035 BKN250 20/20 A2995 RMK ST4SC1CI2 TR VIS LWR N SLP142 DENSITY ALT 900FT=
METAR
LIEU
CYQB - QUEBEC/JEAN LESAGE INTL/QC
DATE - HEURE
09 JUILLET 2020 - 1000 UTC
VENT
210 VRAIS @ 6  NOEUDS
VISIBILITE
20 MILLES TERR.
PORTEE VISUELLE DE PISTE
METEO
NEBULOSITE
NUAGES EPARS (3/8 - 4/8) 1300  PI
NUAGES FRAGMENTES (5/8 - 7/8) 3500  PI
NUAGES FRAGMENTES (5/8 - 7/8) 25000  PI
TEMP / PT DE ROSEE
20 C / 20 C
ALTIMETRE
29.95 PO HG
TEMPS RECENT
CISAILLEMENT

SPECI CYQB 090940Z 25004KT 20SM VCFG BKN013 OVC250 20/20 A2995 RMK ST5CI3 VIS N 4 SLP143 DENSITY ALT 900FT=
SPECI
LIEU
CYQB - QUEBEC/JEAN LESAGE INTL/QC
DATE - HEURE
09 JUILLET 2020 - 0940 UTC
VENT
250 VRAIS @ 4  NOEUDS
VISIBILITE
20 MILLES TERR.
PORTEE VISUELLE DE PISTE
METEO
DANS LE VOISINAGE
BROUILLARD
NEBULOSITE
NUAGES FRAGMENTES (5/8 - 7/8) 1300  PI
CIEL COUVERT 25000  PI
TEMP / PT DE ROSEE
20 C / 20 C
ALTIMETRE
29.95 PO HG
TEMPS RECENT
CISAILLEMENT

METAR CYQB 090900Z VRB02KT 20SM FEW036 SCT180 BKN250 20/19 A2993 RMK SC2AC1CC2 S NW-N 5 SLP138 DENSITY ALT 900FT=
METAR
LIEU
CYQB - QUEBEC/JEAN LESAGE INTL/QC
DATE - HEURE
09 JUILLET 2020 - 0900 UTC
VENT
VRB @ 2  NOEUDS
VISIBILITE
20 MILLES TERR.
PORTEE VISUELLE DE PISTE
METEO
NEBULOSITE
QUELQUES NUAGES (1/8 - 2/8) 3600  PI
NUAGES EPARS (3/8 - 4/8) 18000  PI
NUAGES FRAGMENTES (5/8 - 7/8) 25000  PI
TEMP / PT DE ROSEE
20 C / 19 C
ALTIMETRE
29.93 PO HG
TEMPS RECENT
CISAILLEMENT

METAR CYQB 090800Z 27003KT 10SM FEW012 SCT022 BKN250 21/20 A2993 RMK ST1SC4CI2 TR SLP135 DENSITY ALT 1000FT=
METAR
LIEU
CYQB - QUEBEC/JEAN LESAGE INTL/QC
DATE - HEURE
09 JUILLET 2020 - 0800 UTC
VENT
270 VRAIS @ 3  NOEUDS
VISIBILITE
10 MILLES TERR.
PORTEE VISUELLE DE PISTE
METEO
NEBULOSITE
QUELQUES NUAGES (1/8 - 2/8) 1200  PI
NUAGES EPARS (3/8 - 4/8) 2200  PI
NUAGES FRAGMENTES (5/8 - 7/8) 25000  PI
TEMP / PT DE ROSEE
21 C / 20 C
ALTIMETRE
29.93 PO HG
TEMPS RECENT
CISAILLEMENT

TAF CYQB 090540Z 0906/1006 VRB03KT P6SM SCT015 TEMPO 0906/0915 P6SM -SHRA BKN015 PROB30 0906/0912 3/4SM BR BKN002 FM091500 22006KT P6SM FEW015 SCT080 TEMPO 0915/1002 P6SM -SHRA BKN080 PROB30 0915/0924 2SM TSRA BR BKN015 OVC040CB FM100200 03006KT P6SM FEW050 RMK NXT FCST BY 091200Z=
TAF
LIEU

CYQB - QUEBEC/JEAN LESAGE INTL/QC
VALIDITE [UTC]
09 JUL - 0540 à
10 JUL - 0600
 
PERIODES
[UTC]
VENT
[DEGRES VRAIS]
VISIBILITE
[MILLES TERR.]
METEO
NEBULOSITE
[PIEDS AGL]
 
09 JUL - 0600 à
09 JUL - 1500
VARIABLE @ 3 NOEUDS
6+
---
1500 EPARS
CHANGEMENTS TEMPORAIRES
09 JUL - 0600 à
09 JUL - 1500
 
6+
AVERSE DE PLUIE FAIBLE
1500 FRAGMENTES
30% PROBABILITE
09 JUL - 0600 à
09 JUL - 1200
 
3/4
BRUME
200 FRAGMENTES
 
09 JUL - 1500 à
10 JUL - 0200
220 @ 6 NOEUDS
6+
---
1500 QUELQUES
8000 EPARS
CHANGEMENTS TEMPORAIRES
09 JUL - 1500 à
10 JUL - 0200
 
6+
AVERSE DE PLUIE FAIBLE
8000 FRAGMENTES
30% PROBABILITE
09 JUL - 1500 à
10 JUL - 0000
 
2
ORAGE AVEC PLUIE MODEREE
BRUME
1500 FRAGMENTES
4000 CIEL COUVERT AVEC CUMULONIMBUS
 
10 JUL - 0200 à
10 JUL - 0600
30 @ 6 NOEUDS
6+
---
5000 QUELQUES
REMARQUES
LA PREVISION SUIVANTE SERA EMISE POUR 1200 UTC LE 09


Votre heure Heure UTC
Données météorologiques fournies par Environnement Canada et NAV CANADA